METAR Reports From Nearby Airports

 

KTIW - Tacoma, Washington, USA
Distance from station: S 6mi, 10km
Updated: Mon, 23-Oct-2017 5:53am PDT
Overcast
Overcast
 Wind from calm
Wind: Calm
Temperature: 48°F , 9°C
Dew Point: 48°F , 9°C
Humidity: 100%
Barometer: 30.58 inHg , 1035.6 hPa
Clouds: Overcast
Visibility: 10 miles , 16 km
Cloud details: Overcast 10000 ft
2017/10/23 12:53 KTIW 231253Z AUTO 00000KT 10SM OVC100 09/09 A3058 RMK AO2 SLP357 T00890089 $
KPWT - Bremerton Ntnl, Washington, USA
Distance from station: NW 13mi, 20km
Updated: Mon, 23-Oct-2017 6:17am PDT
Mist, Overcast
Mist, Overcast
 Wind from SSE
Wind: SSE 3 mph , 6 km/h
Temperature: 48°F , 9°C
Dew Point: 48°F , 9°C
Humidity: 100%
Barometer: 30.57 inHg , 1035.2 hPa
Summary: Mist
Clouds: Overcast
Visibility: 3/4 mile , 5 km
Cloud details: Overcast 400 ft
2017/10/23 13:17 KPWT 231317Z AUTO 16003KT 3/4SM BR OVC004 09/09 A3057 RMK AO2
KSEA - Seattle/Metro, Washington, USA
Distance from station: ENE 14mi, 23km
Updated: Mon, 23-Oct-2017 5:53am PDT
Overcast
Overcast
 Wind from SSE
Wind: SSE 5 mph , 7 km/h
Temperature: 50°F , 10°C
Wind Chill: 48°F , 9°C
Dew Point: 45°F , 7°C
Humidity: 82%
Barometer: 30.58 inHg , 1035.6 hPa
Clouds: Overcast
Visibility: 10 miles , 16 km
Cloud details: Overcast 10000 ft
2017/10/23 12:53 KSEA 231253Z 15004KT 10SM OVC100 10/07 A3058 RMK AO2 SLP361 T01000067 $
 
KTCM - Tacoma/Mc Chord, Washington, USA
Distance from station: SSE 17mi, 28km
Updated: Mon, 23-Oct-2017 5:58am PDT
Overcast
Overcast
 Wind from calm
Wind: Calm
Temperature: 43°F , 6°C
Dew Point: 43°F , 6°C
Humidity: 100%
Barometer: 30.58 inHg , 1035.6 hPa
Clouds: Overcast
Visibility: 10 miles , 16 km
Cloud details: Overcast 10000 ft
2017/10/23 12:58 KTCM 231258Z AUTO 00000KT 10SM OVC100 06/06 A3058 RMK AO2 SLP361 T00600060 RVRNO $
KBFI - Seattle/Boeing, Washington, USA
Distance from station: NE 19mi, 30km
Updated: Mon, 23-Oct-2017 5:53am PDT
Overcast
Overcast
 Wind from SE
Wind: SE 7 mph , 11 km/h
Temperature: 50°F , 10°C
Wind Chill: 47°F , 8°C
Dew Point: 46°F , 8°C
Humidity: 88%
Barometer: 30.58 inHg , 1035.6 hPa
Clouds: Overcast
Visibility: 10 miles , 16 km
Cloud details: Overcast 10000 ft
2017/10/23 12:53 KBFI 231253Z 14006KT 10SM OVC100 10/08 A3058 RMK AO2 SLP354 T01000078 $
KGRF - Fort Lewis/Gray, Washington, USA
Distance from station: S 20mi, 32km
Updated: Mon, 23-Oct-2017 5:58am PDT
Mostly cloudy
Mostly cloudy
 Wind from calm
Wind: Calm
Temperature: 45°F , 7°C
Dew Point: 45°F , 7°C
Humidity: 100%
Barometer: 30.57 inHg , 1035.2 hPa
Clouds: Mostly cloudy
Visibility: 10 miles , 16 km
Cloud details: Mostly cloudy 10000 ft
2017/10/23 12:58 KGRF 231258Z AUTO 00000KT 10SM BKN100 07/07 A3057 RMK AO2 SLP357 T00670067 $
 
KRNT - Renton, Washington, USA
Distance from station: ENE 20mi, 32km
Updated: Mon, 23-Oct-2017 5:53am PDT
Overcast
Overcast
 Wind from ESE
Wind: ESE 3 mph , 6 km/h
Temperature: 48°F , 9°C
Dew Point: 48°F , 9°C
Humidity: 100%
Barometer: 30.58 inHg , 1035.6 hPa
Clouds: Overcast
Visibility: 10 miles , 16 km
Cloud details: Overcast 10000 ft
2017/10/23 12:53 KRNT 231253Z AUTO 12003KT 10SM OVC100 09/09 A3058 RMK AO2 SLP360 T00940089 $
KPLU - Puyallup/Thun, Washington, USA
Distance from station: SE 23mi, 36km
Updated: Mon, 23-Oct-2017 6:35am PDT
Overcast
Overcast
 Wind from calm
Wind: Calm
Temperature: 45°F , 7°C
Dew Point: 45°F , 7°C
Humidity: 100%
Barometer: 30.59 inHg , 1035.9 hPa
Clouds: Overcast
Visibility: 10 miles , 16 km
Cloud details: Overcast 9000 ft
2017/10/23 13:35 KPLU 231335Z AUTO 00000KT 10SM OVC090 07/07 A3059 RMK AO2
KSHN - Shelton, Washington, USA
Distance from station: WSW 27mi, 43km
Updated: Mon, 23-Oct-2017 6:34am PDT
Mist, Overcast
Mist, Overcast
 Wind from calm
Wind: Calm
Temperature: 43°F , 6°C
Dew Point: 43°F , 6°C
Humidity: 100%
Barometer: 30.55 inHg , 1034.5 hPa
Summary: Mist
Clouds: Overcast
Visibility: 1 3/4 miles , 5 km
Cloud details: Overcast 9000 ft
2017/10/23 13:34 KSHN 231334Z AUTO 00000KT 1 3/4SM BR OVC090 06/06 A3055 RMK AO2 VIS 1V5 T00610061 $
 
KOLM - Olympia, Washington, USA
Distance from station: SSW 30mi, 49km
Updated: Mon, 23-Oct-2017 5:54am PDT
Partly cloudy
Partly cloudy
 Wind from calm
Wind: Calm
Temperature: 43°F , 6°C
Dew Point: 43°F , 6°C
Humidity: 100%
Barometer: 30.57 inHg , 1035.2 hPa
Clouds: Partly cloudy
Visibility: 7 miles , 11 km
Cloud details: Partly cloudy 10000 ft
2017/10/23 12:54 KOLM 231254Z AUTO 00000KT 7SM SCT100 06/06 A3057 RMK AO2 SLP354 T00610061
KPAE - Everett, Washington, USA
Distance from station: NNE 41mi, 67km
Updated: Mon, 23-Oct-2017 5:53am PDT
Few Clouds
Few Clouds
 Wind from varies
Wind: varies 5 mph , 7 km/h
Temperature: 50°F , 10°C
Wind Chill: 48°F , 9°C
Dew Point: 48°F , 9°C
Humidity: 94%
Barometer: 30.58 inHg , 1035.6 hPa
Clouds: Few Clouds
Visibility: 10 miles , 16 km
Cloud details: Few Clouds 1800 ft
2017/10/23 12:53 KPAE 231253Z AUTO VRB04KT 10SM FEW018 10/09 A3058 RMK AO2 SLP355 T01000089 $
KCLS - Chehalis Central, Washington, USA
Distance from station: SSW 50mi, 80km
Updated: Mon, 23-Oct-2017 6:35am PDT
Overcast
Overcast
 Wind from calm
Wind: Calm
Temperature: 45°F , 7°C
Dew Point: 45°F , 7°C
Humidity: 100%
Barometer: 30.59 inHg , 1035.9 hPa
Clouds: Overcast
Visibility: 10 miles , 16 km
Cloud details: Few Clouds 5000 ft
Overcast 9000 ft
2017/10/23 13:35 KCLS 231335Z AUTO 00000KT 10SM FEW050 OVC090 07/07 A3059 RMK AO2